createdAt,value
2023-04-17T00:01:09.414Z,95.70
2023-04-17T00:03:36.305Z,95.52
2023-04-17T00:06:03.527Z,95.51
2023-04-17T00:08:30.959Z,95.66
2023-04-17T00:11:07.167Z,95.71
2023-04-17T00:13:35.655Z,95.84
2023-04-17T00:16:02.864Z,95.74
2023-04-17T00:18:29.648Z,95.54
2023-04-17T00:20:56.550Z,95.26
2023-04-17T00:23:23.218Z,95.32
2023-04-17T00:25:49.875Z,95.61
2023-04-17T00:28:16.389Z,95.89
2023-04-17T00:30:42.905Z,95.62
2023-04-17T00:33:09.501Z,95.58
2023-04-17T00:35:36.043Z,96.19
2023-04-17T00:38:02.654Z,95.53
2023-04-17T00:40:29.196Z,95.47
2023-04-17T00:43:03.548Z,95.61
2023-04-17T00:45:31.035Z,95.65
2023-04-17T00:47:59.311Z,95.69
2023-04-17T00:50:29.623Z,95.73
2023-04-17T00:52:56.219Z,95.69
2023-04-17T00:55:23.144Z,95.44
2023-04-17T00:57:50.453Z,95.49
2023-04-17T01:00:18.198Z,95.53
2023-04-17T01:02:45.936Z,95.53
2023-04-17T01:05:12.890Z,95.60
2023-04-17T01:07:41.168Z,95.52
2023-04-17T01:10:08.365Z,95.41
2023-04-17T01:12:35.281Z,95.15
2023-04-17T01:15:02.272Z,95.23
2023-04-17T01:17:29.000Z,95.40
2023-04-17T01:19:57.097Z,95.52
2023-04-17T01:22:23.733Z,95.47
2023-04-17T01:24:50.855Z,95.46
2023-04-17T01:27:17.679Z,95.57
2023-04-17T01:29:45.987Z,95.89
2023-04-17T01:32:12.846Z,96.11
2023-04-17T01:34:39.415Z,96.25
2023-04-17T01:37:06.975Z,96.33
2023-04-17T01:39:33.851Z,96.30
2023-04-17T01:42:00.592Z,96.52
2023-04-17T01:44:28.338Z,96.64
2023-04-17T01:46:54.990Z,96.79
2023-04-17T01:49:21.866Z,97.24
2023-04-17T01:51:48.427Z,97.26
2023-04-17T01:54:15.573Z,97.36
2023-04-17T01:56:42.455Z,97.41
2023-04-17T01:59:09.851Z,97.41
2023-04-17T02:01:37.399Z,97.48
2023-04-17T02:04:04.259Z,97.44
2023-04-17T02:06:31.968Z,97.42
2023-04-17T02:08:59.413Z,97.19
2023-04-17T02:11:26.354Z,97.03
2023-04-17T02:13:53.425Z,96.99
2023-04-17T02:16:24.076Z,96.34
2023-04-17T02:18:51.672Z,96.31
2023-04-17T02:21:18.682Z,96.40
2023-04-17T02:23:45.288Z,96.41
2023-04-17T02:26:12.339Z,96.43
2023-04-17T02:28:39.476Z,96.64
2023-04-17T02:31:09.432Z,96.62
2023-04-17T02:33:36.723Z,96.60
2023-04-17T02:36:05.419Z,96.39
2023-04-17T02:38:32.449Z,96.27
2023-04-17T02:40:59.057Z,96.33
2023-04-17T02:43:25.625Z,96.47
2023-04-17T02:45:52.143Z,96.72
2023-04-17T02:48:18.694Z,96.93
2023-04-17T02:50:45.461Z,97.07
2023-04-17T02:53:12.444Z,97.14
2023-04-17T02:55:38.969Z,97.25
2023-04-17T02:58:05.504Z,97.40
2023-04-17T03:00:32.107Z,97.60
2023-04-17T03:02:58.948Z,97.76
2023-04-17T03:05:25.845Z,97.87
2023-04-17T03:07:52.424Z,98.01
2023-04-17T03:10:18.974Z,98.08
2023-04-17T03:12:45.727Z,98.11
2023-04-17T03:15:12.309Z,98.20
2023-04-17T03:17:39.149Z,98.28
2023-04-17T03:20:07.510Z,98.50
2023-04-17T03:22:34.175Z,98.74
2023-04-17T03:25:00.763Z,98.65
2023-04-17T03:27:27.309Z,98.64
2023-04-17T03:29:56.203Z,98.71
2023-04-17T03:32:22.746Z,98.75
2023-04-17T03:34:49.292Z,98.85
2023-04-17T03:37:15.846Z,98.95
2023-04-17T03:39:42.406Z,98.93
2023-04-17T03:42:11.992Z,99.00
2023-04-17T03:44:38.528Z,99.25
2023-04-17T03:47:05.212Z,99.32
2023-04-17T03:49:31.767Z,99.40
2023-04-17T03:51:58.358Z,99.47
2023-04-17T03:54:24.988Z,99.60
2023-04-17T03:56:51.587Z,99.68
2023-04-17T03:59:18.138Z,99.65
2023-04-17T04:01:46.866Z,99.75
2023-04-17T04:04:13.761Z,99.77
2023-04-17T04:06:42.643Z,99.84
2023-04-17T04:09:09.227Z,99.92
2023-04-17T04:11:35.994Z,99.90
2023-04-17T04:14:02.555Z,99.89
2023-04-17T04:16:29.205Z,99.91
2023-04-17T04:18:56.060Z,99.97
2023-04-17T04:21:23.689Z,99.99
2023-04-17T04:23:51.009Z,99.99
2023-04-17T04:26:17.583Z,99.99
2023-04-17T04:28:44.323Z,99.99
2023-04-17T04:31:11.340Z,99.99
2023-04-17T04:33:37.895Z,99.99
2023-04-17T04:36:04.681Z,99.95
2023-04-17T04:38:32.440Z,99.99
2023-04-17T04:41:06.112Z,99.99
2023-04-17T04:43:34.610Z,99.99
2023-04-17T04:46:01.255Z,99.99
2023-04-17T04:48:28.832Z,99.99
2023-04-17T04:50:58.220Z,99.99
2023-04-17T04:53:24.839Z,99.99
2023-04-17T04:55:51.404Z,99.99
2023-04-17T04:58:17.968Z,99.99
2023-04-17T05:00:44.651Z,99.94
2023-04-17T05:03:12.713Z,99.25
2023-04-17T05:05:41.080Z,99.14
2023-04-17T05:08:07.858Z,98.82
2023-04-17T05:10:35.080Z,98.55
2023-04-17T05:13:01.954Z,98.03
2023-04-17T05:15:28.508Z,97.88
2023-04-17T05:17:55.077Z,97.98
2023-04-17T05:20:21.843Z,97.81
2023-04-17T05:22:49.433Z,98.02
2023-04-17T05:25:19.705Z,97.59
2023-04-17T05:27:46.653Z,97.07
2023-04-17T05:30:13.880Z,96.98
2023-04-17T05:32:41.733Z,96.75
2023-04-17T05:35:08.533Z,96.51
2023-04-17T05:37:35.038Z,96.76
2023-04-17T05:40:02.108Z,96.60
2023-04-17T05:42:28.750Z,96.55
2023-04-17T05:44:55.311Z,96.43
2023-04-17T05:47:21.994Z,96.03
2023-04-17T05:49:51.137Z,96.31
2023-04-17T05:52:17.897Z,96.16
2023-04-17T05:54:44.602Z,95.23
2023-04-17T05:57:11.247Z,94.87
2023-04-17T05:59:37.788Z,94.28
2023-04-17T06:02:04.776Z,94.80
2023-04-17T06:04:32.031Z,94.86
2023-04-17T06:06:59.002Z,94.54
2023-04-17T06:09:26.186Z,93.88
2023-04-17T06:11:52.862Z,93.50
2023-04-17T06:14:19.414Z,92.92
2023-04-17T06:16:46.113Z,92.76
2023-04-17T06:19:12.786Z,92.21
2023-04-17T06:21:39.417Z,92.34
2023-04-17T06:24:06.591Z,91.91
2023-04-17T06:26:33.104Z,92.00
2023-04-17T06:29:01.128Z,92.22
2023-04-17T06:31:27.675Z,92.60
2023-04-17T06:33:54.230Z,91.90
2023-04-17T06:36:20.711Z,91.81
2023-04-17T06:38:47.247Z,92.01
2023-04-17T06:41:14.443Z,91.08
2023-04-17T06:43:41.153Z,90.56
2023-04-17T06:46:07.808Z,89.50
2023-04-17T06:48:34.379Z,88.79
2023-04-17T06:51:01.085Z,87.33
2023-04-17T06:53:27.601Z,87.02
2023-04-17T06:55:54.461Z,86.34
2023-04-17T06:58:21.218Z,85.97
2023-04-17T07:00:47.807Z,84.73
2023-04-17T07:03:14.963Z,84.97
2023-04-17T07:05:43.966Z,83.53
2023-04-17T07:08:10.531Z,82.15
2023-04-17T07:10:37.180Z,83.01
2023-04-17T07:13:03.809Z,82.34
2023-04-17T07:15:31.271Z,79.70
2023-04-17T07:17:57.984Z,77.72
2023-04-17T07:20:24.809Z,74.75
2023-04-17T07:22:51.356Z,74.38
2023-04-17T07:25:18.013Z,72.96
2023-04-17T07:27:44.542Z,73.86
2023-04-17T07:30:11.338Z,71.37
2023-04-17T07:32:37.958Z,65.95
2023-04-17T07:35:04.994Z,62.10
2023-04-17T07:37:31.606Z,59.85
2023-04-17T07:39:58.182Z,59.51
2023-04-17T07:42:25.098Z,64.14
2023-04-17T07:44:52.174Z,62.28
2023-04-17T07:47:19.055Z,61.59
2023-04-17T07:49:48.912Z,59.80
2023-04-17T07:52:17.803Z,59.44
2023-04-17T07:54:44.833Z,59.99
2023-04-17T07:57:11.384Z,56.43
2023-04-17T07:59:37.984Z,54.18
2023-04-17T08:02:05.659Z,52.76
2023-04-17T08:04:33.264Z,51.78
2023-04-17T08:07:00.446Z,50.28
2023-04-17T08:09:27.148Z,50.82
2023-04-17T08:11:57.628Z,47.44
2023-04-17T08:14:25.614Z,49.02
2023-04-17T08:16:52.677Z,49.41
2023-04-17T08:19:19.369Z,45.74
2023-04-17T08:21:50.016Z,46.23
2023-04-17T08:24:19.220Z,46.53
2023-04-17T08:26:47.776Z,46.61
2023-04-17T08:29:14.986Z,45.59
2023-04-17T08:31:43.003Z,45.77
2023-04-17T08:34:14.561Z,42.96
2023-04-17T08:36:42.959Z,43.07
2023-04-17T08:39:12.194Z,44.85
2023-04-17T08:42:02.991Z,41.29
2023-04-17T08:44:30.517Z,41.79
2023-04-17T08:47:02.425Z,40.78
2023-04-17T08:49:29.536Z,42.01
2023-04-17T08:51:56.267Z,40.84
2023-04-17T08:54:22.902Z,41.15
2023-04-17T08:56:49.528Z,39.81
2023-04-17T08:59:17.845Z,38.58
2023-04-17T09:02:04.262Z,39.39
2023-04-17T09:04:49.143Z,37.56
2023-04-17T09:07:16.580Z,39.33
2023-04-17T09:10:01.230Z,39.67
2023-04-17T09:12:27.821Z,37.38
2023-04-17T09:14:54.485Z,39.40
2023-04-17T09:17:21.518Z,38.51
2023-04-17T09:20:09.679Z,37.32
2023-04-17T09:22:38.169Z,39.02
2023-04-17T09:25:14.729Z,37.16
2023-04-17T09:27:41.285Z,38.76
2023-04-17T09:30:08.459Z,38.89
2023-04-17T09:32:35.329Z,41.30
2023-04-17T09:35:04.335Z,40.26
2023-04-17T09:37:51.309Z,41.04
2023-04-17T09:40:19.575Z,41.61
2023-04-17T09:43:02.097Z,41.61
2023-04-17T09:45:35.795Z,39.36
2023-04-17T09:48:06.298Z,41.67
2023-04-17T09:50:35.852Z,41.79
2023-04-17T09:53:04.463Z,44.70
2023-04-17T09:55:31.480Z,43.58
2023-04-17T09:58:02.701Z,46.05
2023-04-17T10:00:29.957Z,44.84
2023-04-17T10:02:58.992Z,45.47
2023-04-17T10:05:28.778Z,47.08
2023-04-17T10:07:56.399Z,48.08
2023-04-17T10:10:32.394Z,44.41
2023-04-17T10:13:08.260Z,44.79
2023-04-17T10:15:35.505Z,45.21
2023-04-17T10:18:22.670Z,45.31
2023-04-17T10:20:50.629Z,46.99
2023-04-17T10:23:46.645Z,46.37
2023-04-17T10:26:25.130Z,47.21
2023-04-17T10:28:53.219Z,46.73
2023-04-17T10:31:21.032Z,41.96
2023-04-17T10:33:52.577Z,39.01
2023-04-17T10:36:37.920Z,40.63
2023-04-17T10:39:15.126Z,36.77
2023-04-17T10:42:04.900Z,40.51
2023-04-17T10:44:39.008Z,40.28
2023-04-17T10:47:15.361Z,39.71
2023-04-17T10:49:54.366Z,39.72
2023-04-17T10:52:33.348Z,38.38
2023-04-17T10:55:07.939Z,37.99
2023-04-17T10:57:58.095Z,39.84
2023-04-17T11:00:31.544Z,39.58
2023-04-17T11:02:59.370Z,39.21
2023-04-17T11:05:26.606Z,40.38
2023-04-17T11:07:53.242Z,39.07
2023-04-17T11:10:21.202Z,39.24
2023-04-17T11:12:49.791Z,40.72
2023-04-17T11:15:16.676Z,40.23
2023-04-17T11:17:48.048Z,41.06
2023-04-17T11:20:17.409Z,41.46
2023-04-17T11:22:44.859Z,42.41
2023-04-17T11:25:22.722Z,43.13
2023-04-17T11:27:57.372Z,42.60
2023-04-17T11:30:34.566Z,41.89
2023-04-17T11:33:03.910Z,40.67
2023-04-17T11:35:34.914Z,42.24
2023-04-17T11:38:21.650Z,43.65
2023-04-17T11:40:54.077Z,45.36
2023-04-17T11:43:22.303Z,45.38
2023-04-17T11:45:54.778Z,45.44
2023-04-17T11:48:25.016Z,46.23
2023-04-17T11:50:56.363Z,48.05
2023-04-17T11:53:23.022Z,49.55
2023-04-17T11:56:16.790Z,51.14
2023-04-17T11:58:53.873Z,51.00
2023-04-17T12:01:24.758Z,52.34
2023-04-17T12:03:53.492Z,51.51
2023-04-17T12:06:20.130Z,52.82
2023-04-17T12:08:48.002Z,52.88
2023-04-17T12:11:35.866Z,54.92
2023-04-17T12:14:05.116Z,54.47
2023-04-17T12:16:31.719Z,57.66
2023-04-17T12:18:58.536Z,57.46
2023-04-17T12:21:25.351Z,58.67
2023-04-17T12:23:52.136Z,57.89
2023-04-17T12:26:18.941Z,59.98
2023-04-17T12:28:45.698Z,60.91
2023-04-17T12:31:12.777Z,60.72
2023-04-17T12:33:39.378Z,62.82
2023-04-17T12:36:06.799Z,63.45
2023-04-17T12:38:33.739Z,65.26
2023-04-17T12:41:00.342Z,66.92
2023-04-17T12:43:27.415Z,67.81
2023-04-17T12:45:54.020Z,69.84
2023-04-17T12:48:20.673Z,68.60
2023-04-17T12:50:47.209Z,68.10
2023-04-17T12:53:14.819Z,66.72
2023-04-17T12:55:43.719Z,68.77
2023-04-17T12:58:12.162Z,66.09
2023-04-17T13:00:40.668Z,67.39
2023-04-17T13:03:07.590Z,66.10
2023-04-17T13:05:34.842Z,64.06
2023-04-17T13:08:01.696Z,65.82
2023-04-17T13:10:28.528Z,65.44
2023-04-17T13:12:55.493Z,64.61
2023-04-17T13:15:22.002Z,64.08
2023-04-17T13:17:48.557Z,64.68
2023-04-17T13:20:15.564Z,65.84
2023-04-17T13:22:42.226Z,66.18
2023-04-17T13:25:09.537Z,66.36
2023-04-17T13:27:37.211Z,68.58
2023-04-17T13:30:03.951Z,69.90
2023-04-17T13:32:30.524Z,70.22
2023-04-17T13:34:58.754Z,71.71
2023-04-17T13:37:25.651Z,71.05
2023-04-17T13:39:52.215Z,71.26
2023-04-17T13:42:18.986Z,71.70
2023-04-17T13:44:45.601Z,71.63
2023-04-17T13:47:13.852Z,72.00
2023-04-17T13:49:40.489Z,72.86
2023-04-17T13:52:07.419Z,72.89
2023-04-17T13:54:33.956Z,74.07
2023-04-17T13:57:01.129Z,73.49
2023-04-17T13:59:27.865Z,74.31
2023-04-17T14:01:54.779Z,75.04
2023-04-17T14:04:21.610Z,75.23
2023-04-17T14:06:50.737Z,76.85
2023-04-17T14:09:17.576Z,77.48
2023-04-17T14:11:44.180Z,78.68
2023-04-17T14:14:12.563Z,81.26
2023-04-17T14:16:40.643Z,79.54
2023-04-17T14:19:14.177Z,78.78
2023-04-17T14:21:41.702Z,79.60
2023-04-17T14:24:08.777Z,80.69
2023-04-17T14:26:35.865Z,80.28
2023-04-17T14:29:02.451Z,81.38
2023-04-17T14:31:29.060Z,81.85
2023-04-17T14:33:55.680Z,81.31
2023-04-17T14:36:22.191Z,81.68
2023-04-17T14:38:51.090Z,81.53
2023-04-17T14:41:18.080Z,80.76
2023-04-17T14:43:44.859Z,80.76
2023-04-17T14:46:11.726Z,81.60
2023-04-17T14:48:47.999Z,82.48
2023-04-17T14:53:48.696Z,85.07
2023-04-17T14:56:15.865Z,84.10
2023-04-17T14:58:43.187Z,84.87
2023-04-17T15:01:09.780Z,85.09
2023-04-17T15:03:36.506Z,85.47
2023-04-17T15:06:03.441Z,85.30
2023-04-17T15:08:32.609Z,85.08
2023-04-17T15:10:59.156Z,84.94
2023-04-17T15:13:25.718Z,85.44
2023-04-17T15:15:52.267Z,85.94
2023-04-17T15:18:18.832Z,86.27
2023-04-17T15:20:46.278Z,86.26
2023-04-17T15:23:13.038Z,85.87
2023-04-17T15:25:39.824Z,86.39
2023-04-17T15:28:06.935Z,87.43
2023-04-17T15:30:33.438Z,87.15
2023-04-17T15:33:00.104Z,86.84
2023-04-17T15:35:26.665Z,87.66
2023-04-17T15:37:53.288Z,87.97
2023-04-17T15:40:19.886Z,88.12
2023-04-17T15:42:46.599Z,88.17
2023-04-17T15:45:13.194Z,89.07
2023-04-17T15:47:40.005Z,88.79
2023-04-17T15:50:08.056Z,89.71
2023-04-17T15:52:34.728Z,90.44
2023-04-17T15:55:01.265Z,89.63
2023-04-17T15:57:27.814Z,88.87
2023-04-17T15:59:54.332Z,89.40
2023-04-17T16:02:21.259Z,89.94
2023-04-17T16:04:48.007Z,90.27
2023-04-17T16:07:15.557Z,89.33
2023-04-17T16:09:44.938Z,87.66
2023-04-17T16:12:11.489Z,88.83
2023-04-17T16:14:38.488Z,89.30
2023-04-17T16:17:05.522Z,89.38
2023-04-17T16:19:32.469Z,89.78
2023-04-17T16:21:59.446Z,90.00
2023-04-17T16:24:26.236Z,90.22
2023-04-17T16:26:57.286Z,90.88
2023-04-17T16:29:25.147Z,89.89
2023-04-17T16:31:53.427Z,89.77
2023-04-17T16:34:20.807Z,90.25
2023-04-17T16:36:47.993Z,90.33
2023-04-17T16:39:14.728Z,90.95
2023-04-17T16:41:41.819Z,91.35
2023-04-17T16:44:08.429Z,91.36
2023-04-17T16:46:58.705Z,91.48
2023-04-17T16:49:22.049Z,91.61
2023-04-17T16:51:48.569Z,91.70
2023-04-17T16:54:15.271Z,92.18
2023-04-17T16:56:42.693Z,92.27
2023-04-17T16:59:09.320Z,92.44
2023-04-17T17:01:35.895Z,92.80
2023-04-17T17:04:02.646Z,92.61
2023-04-17T17:06:29.694Z,91.86
2023-04-17T17:08:56.280Z,91.81
2023-04-17T17:11:23.294Z,92.10
2023-04-17T17:13:50.679Z,92.39
2023-04-17T17:16:19.467Z,92.61
2023-04-17T17:18:47.414Z,92.72
2023-04-17T17:21:14.864Z,93.24
2023-04-17T17:23:41.837Z,93.43
2023-04-17T17:26:08.642Z,93.53
2023-04-17T17:28:35.445Z,93.38
2023-04-17T17:31:04.243Z,93.48
2023-04-17T17:33:32.217Z,93.65
2023-04-17T17:35:59.689Z,93.87
2023-04-17T17:38:28.641Z,94.20
2023-04-17T17:40:58.331Z,94.18
2023-04-17T17:43:24.934Z,94.09
2023-04-17T17:45:52.522Z,94.39
2023-04-17T17:48:20.446Z,94.19
2023-04-17T17:50:47.472Z,94.13
2023-04-17T17:53:14.165Z,94.15
2023-04-17T17:55:40.797Z,94.63
2023-04-17T17:58:08.888Z,94.55
2023-04-17T18:00:35.714Z,94.53
2023-04-17T18:03:02.499Z,94.75
2023-04-17T18:05:29.167Z,94.77
2023-04-17T18:07:55.740Z,94.98
2023-04-17T18:10:22.579Z,95.09
2023-04-17T18:12:49.748Z,94.97
2023-04-17T18:15:16.643Z,94.73
2023-04-17T18:17:43.317Z,94.72
2023-04-17T18:20:10.441Z,95.22
2023-04-17T18:22:38.348Z,95.29
2023-04-17T18:25:06.926Z,94.88
2023-04-17T18:27:36.247Z,95.17
2023-04-17T18:30:09.014Z,95.71
2023-04-17T18:32:36.272Z,95.38
2023-04-17T18:35:03.945Z,94.91
2023-04-17T18:37:30.509Z,95.09
2023-04-17T18:39:57.018Z,95.51
2023-04-17T18:42:23.598Z,95.21
2023-04-17T18:44:50.157Z,95.34
2023-04-17T18:47:16.971Z,95.57
2023-04-17T18:49:43.760Z,95.38
2023-04-17T18:52:10.364Z,95.41
2023-04-17T18:54:36.833Z,95.51
2023-04-17T18:57:03.570Z,95.75
2023-04-17T18:59:31.896Z,95.75
2023-04-17T19:05:47.553Z,95.58
2023-04-17T19:08:14.872Z,95.99
2023-04-17T19:10:42.732Z,95.84
2023-04-17T19:13:09.846Z,95.94
2023-04-17T19:15:36.652Z,96.08
2023-04-17T19:18:03.484Z,95.92
2023-04-17T19:20:30.085Z,96.05
2023-04-17T19:23:04.098Z,96.31
2023-04-17T19:25:30.913Z,96.25
2023-04-17T19:28:01.391Z,96.55
2023-04-17T19:30:28.202Z,96.58
2023-04-17T19:32:59.518Z,96.60
2023-04-17T19:35:26.388Z,96.42
2023-04-17T19:37:52.928Z,96.52
2023-04-17T19:40:25.181Z,96.62
2023-04-17T19:42:52.781Z,96.47
2023-04-17T19:45:20.788Z,96.28
2023-04-17T19:47:54.578Z,96.34
2023-04-17T19:50:27.085Z,96.57
2023-04-17T19:52:54.990Z,96.49
2023-04-17T19:55:21.757Z,96.47
2023-04-17T19:57:50.741Z,96.73
2023-04-17T20:00:17.702Z,96.70
2023-04-17T20:02:44.402Z,96.72
2023-04-17T20:05:10.971Z,96.24
2023-04-17T20:07:37.508Z,96.59
2023-04-17T20:10:05.009Z,96.41
2023-04-17T20:12:31.655Z,96.55
2023-04-17T20:14:58.160Z,96.78
2023-04-17T20:17:24.790Z,96.65
2023-04-17T20:19:51.307Z,96.79
2023-04-17T20:22:18.015Z,96.50
2023-04-17T20:24:44.518Z,96.68
2023-04-17T20:27:11.092Z,96.60
2023-04-17T20:29:38.018Z,96.48
2023-04-17T20:32:04.592Z,96.75
2023-04-17T20:34:34.947Z,96.67
2023-04-17T20:37:01.884Z,96.35
2023-04-17T20:39:28.996Z,96.52
2023-04-17T20:41:56.339Z,96.38
2023-04-17T20:44:22.827Z,96.22
2023-04-17T20:46:49.424Z,96.16
2023-04-17T20:49:16.055Z,96.14
2023-04-17T20:51:42.658Z,96.36
2023-04-17T20:54:09.162Z,96.73
2023-04-17T20:56:35.810Z,96.88
2023-04-17T20:59:02.294Z,97.01
2023-04-17T21:01:28.824Z,96.87
2023-04-17T21:03:56.264Z,96.88
2023-04-17T21:06:22.932Z,96.89
2023-04-17T21:08:49.542Z,96.85
2023-04-17T21:11:16.607Z,96.78
2023-04-17T21:13:43.140Z,96.55
2023-04-17T21:16:11.274Z,96.51
2023-04-17T21:18:38.009Z,96.79
2023-04-17T21:21:04.850Z,96.73
2023-04-17T21:23:31.660Z,96.54
2023-04-17T21:25:58.156Z,96.61
2023-04-17T21:28:24.719Z,96.57
2023-04-17T21:30:51.204Z,96.68
2023-04-17T21:33:18.020Z,96.78
2023-04-17T21:35:44.788Z,96.93
2023-04-17T21:38:11.981Z,97.13
2023-04-17T21:40:50.141Z,97.06
2023-04-17T21:43:17.443Z,97.15
2023-04-17T21:45:44.026Z,97.34
2023-04-17T21:48:10.582Z,97.33
2023-04-17T21:50:37.179Z,97.27
2023-04-17T21:53:03.803Z,97.41
2023-04-17T21:55:30.441Z,97.28
2023-04-17T21:57:56.982Z,97.34
2023-04-17T22:00:23.589Z,97.02
2023-04-17T22:02:50.198Z,97.09
2023-04-17T22:05:16.850Z,97.18
2023-04-17T22:07:51.731Z,97.16
2023-04-17T22:10:21.929Z,97.28
2023-04-17T22:12:48.440Z,97.32
2023-04-17T22:15:15.120Z,97.39
2023-04-17T22:17:41.661Z,97.20
2023-04-17T22:20:08.892Z,97.11
2023-04-17T22:22:35.489Z,97.17
2023-04-17T22:25:02.177Z,97.22
2023-04-17T22:27:28.963Z,97.44
2023-04-17T22:29:55.618Z,97.70
2023-04-17T22:32:22.137Z,97.73
2023-04-17T22:34:49.622Z,97.99
2023-04-17T22:37:16.309Z,97.92
2023-04-17T22:39:42.847Z,97.90
2023-04-17T22:42:10.618Z,97.88
2023-04-17T22:44:37.634Z,98.31
2023-04-17T22:47:04.436Z,98.40
2023-04-17T22:49:32.092Z,98.39
2023-04-17T22:51:58.614Z,98.44
2023-04-17T22:54:25.179Z,98.56
2023-04-17T22:56:51.784Z,98.57
2023-04-17T22:59:18.250Z,98.65
2023-04-17T23:01:44.802Z,98.68
2023-04-17T23:04:11.477Z,98.81
2023-04-17T23:06:38.294Z,98.79
2023-04-17T23:09:04.975Z,98.93
2023-04-17T23:11:32.752Z,98.95
2023-04-17T23:14:00.449Z,99.01
2023-04-17T23:16:27.886Z,99.16
2023-04-17T23:18:54.649Z,99.13
2023-04-17T23:21:21.242Z,99.13
2023-04-17T23:23:48.138Z,99.12
2023-04-17T23:26:15.439Z,99.24
2023-04-17T23:28:42.337Z,99.29
2023-04-17T23:31:08.923Z,99.46
2023-04-17T23:33:35.727Z,99.38
2023-04-17T23:36:02.425Z,99.62
2023-04-17T23:38:29.176Z,99.79
2023-04-17T23:40:55.706Z,99.83
2023-04-17T23:43:22.197Z,99.84
2023-04-17T23:45:48.946Z,99.99
2023-04-17T23:48:15.682Z,99.99
2023-04-17T23:50:42.375Z,99.99
2023-04-17T23:53:08.873Z,99.99
2023-04-17T23:55:35.510Z,99.99
2023-04-17T23:58:02.257Z,99.99
